Time;durP1;ratioP1;P1;durP2;ratioP2;P2;SDS_P1;SDS_P2;PMS_P1;PMS_P2;Temp;Humidity;BMP_temperature;BMP_pressure;BME280_temperature;BME280_humidity;BME280_pressure;Samples;Min_cycle;Max_cycle;Signal;HPM_P1;HPM_P2
2021/07/25 00:02:21;;;;;;;22.20;11.60;;;19.70;99.90;;;;;;5062159;28;20515;-71
2021/07/25 00:04:47;;;;;;;22.42;12.27;;;19.60;99.90;;;;;;5062833;28;20039;-71
2021/07/25 00:07:12;;;;;;;18.63;11.27;;;19.70;99.90;;;;;;5064161;28;20423;-70
2021/07/25 00:09:38;;;;;;;22.60;11.65;;;19.60;99.90;;;;;;5062103;28;20032;-72
2021/07/25 00:12:03;;;;;;;25.95;12.88;;;19.60;99.90;;;;;;5049884;28;20041;-70
2021/07/25 00:14:29;;;;;;;28.60;12.13;;;19.60;99.90;;;;;;5044311;28;20056;-72
2021/07/25 00:16:54;;;;;;;21.67;11.48;;;19.50;99.90;;;;;;5060242;28;20029;-72
2021/07/25 00:19:20;;;;;;;28.88;13.20;;;19.50;99.90;;;;;;5044657;28;20175;-72
2021/07/25 00:21:46;;;;;;;23.80;12.30;;;19.50;99.90;;;;;;5044678;28;20029;-70
2021/07/25 00:24:11;;;;;;;21.60;11.55;;;19.50;99.90;;;;;;5045437;28;20037;-71
2021/07/25 00:26:57;;;;;;;20.42;11.20;;;19.50;99.90;;;;;;5063785;28;20025;-70
2021/07/25 00:29:25;;;;;;;20.05;11.57;;;19.40;99.90;;;;;;5064507;28;20544;-70
2021/07/25 00:31:50;;;;;;;23.70;12.38;;;19.50;99.90;;;;;;5064356;28;20043;-70
2021/07/25 00:34:16;;;;;;;20.60;12.50;;;19.50;99.90;;;;;;5064390;28;20036;-71
2021/07/25 00:36:42;;;;;;;23.95;13.27;;;19.40;99.90;;;;;;5062715;28;20032;-70
2021/07/25 00:39:10;;;;;;;24.65;12.23;;;19.40;99.90;;;;;;5064369;28;20032;-69
2021/07/25 00:41:37;;;;;;;26.70;13.13;;;19.40;99.90;;;;;;5064158;28;20032;-69
2021/07/25 00:44:03;;;;;;;30.65;12.30;;;19.40;99.90;;;;;;5064261;28;20055;-70
2021/07/25 00:46:29;;;;;;;28.35;12.95;;;19.30;99.90;;;;;;5064179;28;20037;-70
2021/07/25 00:48:55;;;;;;;20.02;11.88;;;19.30;99.90;;;;;;5064446;28;20036;-71
2021/07/25 00:51:23;;;;;;;27.55;12.90;;;19.30;99.90;;;;;;5063589;28;20029;-70
2021/07/25 00:53:49;;;;;;;28.95;13.27;;;19.30;99.90;;;;;;5063778;28;20021;-71
2021/07/25 00:56:15;;;;;;;23.08;11.93;;;19.30;99.90;;;;;;5068029;28;20044;-71
2021/07/25 00:58:42;;;;;;;20.75;11.02;;;19.30;99.90;;;;;;5068257;28;20385;-71
2021/07/25 01:01:10;;;;;;;20.83;10.55;;;19.30;99.90;;;;;;5068147;28;20025;-70
2021/07/25 01:03:41;;;;;;;23.35;12.27;;;19.30;99.90;;;;;;5067842;28;20021;-68
2021/07/25 01:06:06;;;;;;;26.02;11.73;;;19.20;99.90;;;;;;5068143;28;20032;-69
2021/07/25 01:08:45;;;;;;;22.48;11.82;;;19.30;99.90;;;;;;5067977;28;20033;-70
2021/07/25 01:11:12;;;;;;;23.30;11.38;;;19.30;99.90;;;;;;5068155;28;20390;-69
2021/07/25 01:13:49;;;;;;;21.80;12.38;;;19.30;99.90;;;;;;5067425;28;20230;-69
2021/07/25 01:16:15;;;;;;;21.38;11.18;;;19.40;99.90;;;;;;5066473;28;20032;-70
2021/07/25 01:18:51;;;;;;;25.77;12.52;;;19.40;99.90;;;;;;5067802;28;20040;-70
2021/07/25 01:21:19;;;;;;;24.67;11.90;;;19.40;99.90;;;;;;5067823;28;20028;-70
2021/07/25 01:23:47;;;;;;;30.13;12.43;;;19.30;99.90;;;;;;5067779;28;20503;-70
2021/07/25 01:26:16;;;;;;;22.48;12.65;;;19.30;99.90;;;;;;5067200;28;20045;-68
2021/07/25 01:28:46;;;;;;;22.40;11.55;;;19.30;99.90;;;;;;5067153;28;20035;-70
2021/07/25 01:31:23;;;;;;;30.83;12.27;;;19.30;99.90;;;;;;5067709;28;20068;-70
2021/07/25 01:33:49;;;;;;;24.55;12.73;;;19.30;99.90;;;;;;5067388;28;20029;-69
2021/07/25 01:36:15;;;;;;;26.88;13.98;;;19.30;99.90;;;;;;5066639;28;20017;-69
2021/07/25 01:38:41;;;;;;;27.08;13.20;;;19.30;99.90;;;;;;5067406;28;20032;-70
2021/07/25 01:41:09;;;;;;;22.25;12.57;;;19.30;99.90;;;;;;5066902;28;20021;-70
2021/07/25 01:43:40;;;;;;;26.33;12.15;;;19.30;99.90;;;;;;5065791;28;20025;-72
2021/07/25 01:46:06;;;;;;;21.58;11.65;;;19.20;99.90;;;;;;5066844;28;20025;-71
2021/07/25 01:48:32;;;;;;;28.83;13.60;;;19.20;99.90;;;;;;5066084;28;20032;-70
2021/07/25 01:50:58;;;;;;;25.25;13.10;;;19.20;99.90;;;;;;5066162;28;20025;-71
2021/07/25 01:53:24;;;;;;;30.08;14.57;;;19.10;99.90;;;;;;5067266;28;20040;-69
2021/07/25 01:55:49;;;;;;;25.27;13.05;;;19.20;99.90;;;;;;5066810;28;20527;-71
2021/07/25 01:58:15;;;;;;;30.65;15.88;;;19.10;99.90;;;;;;5067174;28;20021;-71
2021/07/25 02:00:41;;;;;;;31.08;14.38;;;19.10;99.90;;;;;;5066930;28;20045;-70
2021/07/25 02:03:06;;;;;;;40.47;15.07;;;19.10;99.90;;;;;;5066988;28;20028;-69
2021/07/25 02:05:35;;;;;;;38.85;17.55;;;19.10;99.90;;;;;;5066777;28;20037;-73
2021/07/25 02:08:04;;;;;;;38.25;16.60;;;19.10;99.90;;;;;;5066297;28;20032;-74
2021/07/25 02:10:30;;;;;;;29.50;16.08;;;19.10;99.90;;;;;;5066345;28;20044;-71
2021/07/25 02:12:57;;;;;;;32.60;16.13;;;19.10;99.90;;;;;;5066990;28;20021;-69
2021/07/25 02:15:22;;;;;;;36.90;17.60;;;19.10;99.90;;;;;;5066275;28;20044;-70
2021/07/25 02:17:48;;;;;;;37.13;18.33;;;19.10;99.90;;;;;;5066873;28;20536;-71
2021/07/25 02:20:13;;;;;;;35.13;17.67;;;19.00;99.90;;;;;;5066304;28;20091;-71
2021/07/25 02:22:39;;;;;;;45.90;18.13;;;19.00;99.90;;;;;;5066547;28;20021;-70
2021/07/25 02:25:05;;;;;;;44.60;18.48;;;19.00;99.90;;;;;;5066340;28;20037;-71
2021/07/25 02:27:31;;;;;;;40.67;17.75;;;19.00;99.90;;;;;;5066153;28;20056;-71
2021/07/25 02:29:57;;;;;;;41.80;19.73;;;19.00;99.90;;;;;;5066343;28;20036;-71
2021/07/25 02:32:22;;;;;;;47.88;18.52;;;19.00;99.90;;;;;;5066387;28;20036;-70
2021/07/25 02:34:48;;;;;;;41.35;19.73;;;19.00;99.90;;;;;;5066417;28;20088;-72
2021/07/25 02:37:14;;;;;;;34.42;18.40;;;18.90;99.90;;;;;;5064726;28;20021;-72
2021/07/25 02:39:40;;;;;;;38.85;17.02;;;19.00;99.90;;;;;;5066073;28;20055;-73
2021/07/25 02:42:06;;;;;;;46.33;21.02;;;19.00;99.90;;;;;;5066302;28;20489;-70
2021/07/25 02:44:32;;;;;;;39.47;19.67;;;18.90;99.90;;;;;;5066135;28;20033;-69
2021/07/25 02:46:57;;;;;;;55.13;22.52;;;18.90;99.90;;;;;;5066022;28;20021;-70
2021/07/25 02:49:23;;;;;;;43.92;18.60;;;18.90;99.90;;;;;;5065615;28;20112;-73
2021/07/25 02:51:49;;;;;;;40.47;18.02;;;18.90;99.90;;;;;;5066132;28;20033;-70
2021/07/25 02:54:15;;;;;;;41.58;20.20;;;18.90;99.90;;;;;;5066148;28;20032;-72
2021/07/25 02:56:40;;;;;;;50.63;21.52;;;18.90;99.90;;;;;;5065845;28;20021;-71
2021/07/25 02:59:06;;;;;;;41.28;19.00;;;18.80;99.90;;;;;;5065911;28;20126;-72
2021/07/25 03:01:31;;;;;;;45.03;20.60;;;18.80;99.90;;;;;;5064635;28;20063;-71
2021/07/25 03:03:57;;;;;;;49.22;19.92;;;18.80;99.90;;;;;;5066274;28;20025;-70
2021/07/25 03:06:23;;;;;;;42.58;18.80;;;18.90;99.90;;;;;;5065761;28;20025;-70
2021/07/25 03:08:48;;;;;;;48.78;21.13;;;18.80;99.90;;;;;;5065668;28;20036;-71
2021/07/25 03:11:14;;;;;;;45.47;19.83;;;18.80;99.90;;;;;;5065391;28;20036;-70
2021/07/25 03:13:40;;;;;;;37.65;18.75;;;18.80;99.90;;;;;;5065197;28;20473;-73
2021/07/25 03:16:08;;;;;;;42.33;20.38;;;18.80;99.90;;;;;;5065591;28;20039;-74
2021/07/25 03:18:34;;;;;;;40.50;18.77;;;18.70;99.90;;;;;;5065046;28;20021;-69
2021/07/25 03:21:01;;;;;;;45.53;17.70;;;18.70;99.90;;;;;;5065270;28;20047;-73
2021/07/25 03:23:26;;;;;;;37.42;18.25;;;18.80;99.90;;;;;;5065367;28;20033;-70
2021/07/25 03:25:53;;;;;;;45.88;20.23;;;18.70;99.90;;;;;;5065085;28;20080;-73
2021/07/25 03:28:19;;;;;;;43.00;19.17;;;18.70;99.90;;;;;;5064928;28;20029;-74
2021/07/25 03:30:46;;;;;;;45.60;18.20;;;18.70;99.90;;;;;;5064093;28;20045;-74
2021/07/25 03:33:13;;;;;;;38.13;17.38;;;18.70;99.90;;;;;;5064037;28;20074;-70
2021/07/25 03:35:38;;;;;;;33.92;16.65;;;18.70;99.90;;;;;;5065294;28;20393;-72
2021/07/25 03:38:04;;;;;;;40.08;18.13;;;18.70;99.90;;;;;;5064623;28;20029;-74
2021/07/25 03:40:30;;;;;;;39.55;16.00;;;18.60;99.90;;;;;;5065429;28;20106;-73
2021/07/25 03:42:56;;;;;;;33.08;15.65;;;18.60;99.90;;;;;;5065410;28;20032;-73
2021/07/25 03:45:23;;;;;;;33.60;15.25;;;18.60;99.90;;;;;;5063932;28;20071;-71
2021/07/25 03:47:49;;;;;;;29.77;14.60;;;18.60;99.90;;;;;;5065022;28;20056;-69
2021/07/25 03:50:15;;;;;;;28.65;15.82;;;18.60;99.90;;;;;;5064999;28;20070;-73
2021/07/25 03:52:40;;;;;;;32.90;15.55;;;18.60;99.90;;;;;;5065072;28;20040;-74
2021/07/25 03:55:07;;;;;;;37.75;14.38;;;18.50;99.90;;;;;;5064492;28;20131;-70
2021/07/25 03:57:36;;;;;;;41.47;14.75;;;18.60;99.90;;;;;;5064936;28;20032;-71
2021/07/25 04:00:04;;;;;;;31.40;13.63;;;18.60;99.90;;;;;;5064820;28;20116;-71
2021/07/25 04:02:30;;;;;;;36.78;15.15;;;18.60;99.90;;;;;;5064358;28;20028;-69
2021/07/25 04:04:56;;;;;;;28.83;13.73;;;18.50;99.90;;;;;;5064852;28;20025;-71
2021/07/25 04:07:22;;;;;;;30.17;13.80;;;18.60;99.90;;;;;;5064625;28;20032;-69
2021/07/25 04:09:47;;;;;;;27.80;13.90;;;18.50;99.90;;;;;;5064835;28;20021;-70
2021/07/25 04:12:13;;;;;;;30.23;14.07;;;18.60;99.90;;;;;;5064328;28;20032;-72
2021/07/25 04:14:39;;;;;;;33.78;14.93;;;18.60;99.90;;;;;;5064083;28;20077;-70
2021/07/25 04:17:04;;;;;;;29.20;13.68;;;18.50;99.90;;;;;;5064360;28;20040;-71
2021/07/25 04:19:30;;;;;;;34.60;13.75;;;18.50;99.90;;;;;;5064553;28;20044;-70
2021/07/25 04:21:58;;;;;;;26.70;13.82;;;18.50;99.90;;;;;;5064675;28;20094;-70
2021/07/25 04:24:24;;;;;;;32.47;14.57;;;18.60;99.90;;;;;;5063185;28;20055;-71
2021/07/25 04:26:50;;;;;;;28.80;13.05;;;18.60;99.90;;;;;;5064547;28;20037;-69
2021/07/25 04:29:16;;;;;;;30.67;12.57;;;18.50;99.90;;;;;;5063537;28;20537;-70
2021/07/25 04:31:42;;;;;;;27.05;14.32;;;18.60;99.90;;;;;;5064622;28;20036;-69
2021/07/25 04:34:08;;;;;;;30.23;14.85;;;18.60;99.90;;;;;;5063196;28;20021;-70
2021/07/25 04:36:34;;;;;;;32.50;13.07;;;18.60;99.90;;;;;;5064065;28;20025;-69
2021/07/25 04:39:00;;;;;;;35.67;15.00;;;18.60;99.90;;;;;;5064433;28;20021;-70
2021/07/25 04:41:30;;;;;;;26.88;11.93;;;18.60;99.90;;;;;;5064222;28;20108;-69
2021/07/25 04:44:23;;;;;;;30.00;13.88;;;18.60;99.90;;;;;;5064107;28;20021;-70
2021/07/25 04:46:54;;;;;;;25.60;12.88;;;18.60;99.90;;;;;;5064246;28;20037;-69
2021/07/25 04:49:23;;;;;;;28.77;13.95;;;18.60;99.90;;;;;;5064084;28;20405;-70
2021/07/25 04:51:52;;;;;;;29.40;14.10;;;18.60;99.90;;;;;;5064230;28;20036;-68
2021/07/25 04:54:18;;;;;;;30.85;13.55;;;18.60;99.90;;;;;;5063585;28;20049;-69
2021/07/25 04:57:01;;;;;;;27.73;13.40;;;18.60;99.90;;;;;;5062535;28;20120;-68
2021/07/25 04:59:29;;;;;;;23.85;13.52;;;18.60;99.90;;;;;;5063560;28;20061;-70
2021/07/25 05:02:00;;;;;;;33.05;13.60;;;18.60;99.90;;;;;;5062978;28;20107;-67
2021/07/25 05:04:28;;;;;;;28.08;14.73;;;18.70;99.90;;;;;;5064272;28;20092;-70
2021/07/25 05:06:54;;;;;;;32.17;14.73;;;18.70;99.90;;;;;;5063637;28;20410;-69
2021/07/25 05:09:20;;;;;;;34.00;13.63;;;18.70;99.90;;;;;;5064215;28;20055;-69
2021/07/25 05:11:54;;;;;;;36.20;15.30;;;18.70;99.90;;;;;;5063576;28;20045;-68
2021/07/25 05:14:28;;;;;;;33.20;15.20;;;18.70;99.90;;;;;;5063784;28;20709;-69
2021/07/25 05:17:18;;;;;;;28.58;13.95;;;18.70;99.90;;;;;;5063874;28;20798;-70
2021/07/25 05:19:56;;;;;;;31.15;14.13;;;18.70;99.90;;;;;;5062552;28;20040;-69
2021/07/25 05:22:43;;;;;;;32.25;14.35;;;18.70;99.90;;;;;;5063487;28;20029;-66
2021/07/25 05:25:09;;;;;;;27.30;13.05;;;18.70;99.90;;;;;;5063982;28;20036;-70
2021/07/25 05:27:41;;;;;;;30.23;14.55;;;18.70;99.90;;;;;;5063681;28;20064;-69
2021/07/25 05:30:08;;;;;;;34.85;14.18;;;18.70;99.90;;;;;;5063597;28;20021;-69
2021/07/25 05:32:33;;;;;;;31.75;13.43;;;18.70;99.90;;;;;;5063975;28;20055;-70
2021/07/25 05:34:59;;;;;;;33.55;14.35;;;18.80;99.90;;;;;;5064014;28;20033;-72
2021/07/25 05:37:24;;;;;;;26.83;13.90;;;18.80;99.90;;;;;;5050873;28;20065;-70
2021/07/25 05:39:50;;;;;;;26.88;12.00;;;18.80;99.90;;;;;;5060105;28;20037;-76
2021/07/25 05:42:16;;;;;;;31.58;14.27;;;18.80;99.90;;;;;;5045273;28;20501;-74
2021/07/25 05:44:41;;;;;;;30.50;14.55;;;18.80;99.90;;;;;;5046790;28;20026;-69
2021/07/25 05:47:07;;;;;;;31.55;16.27;;;18.80;99.90;;;;;;5062214;28;20068;-71
2021/07/25 05:49:33;;;;;;;31.27;14.88;;;18.80;99.90;;;;;;5045920;28;20026;-69
2021/07/25 05:51:58;;;;;;;33.03;17.02;;;18.80;99.90;;;;;;5061911;28;20022;-70
2021/07/25 05:54:24;;;;;;;33.08;15.90;;;18.80;99.90;;;;;;5058013;28;20025;-67
2021/07/25 05:56:49;;;;;;;32.38;17.80;;;18.80;99.90;;;;;;5066901;28;20036;-69
2021/07/25 05:59:19;;;;;;;34.92;16.17;;;18.90;99.90;;;;;;5066563;28;20048;-69
2021/07/25 06:01:45;;;;;;;37.38;17.17;;;18.90;99.90;;;;;;5066487;28;20025;-70
2021/07/25 06:04:10;;;;;;;38.78;17.30;;;18.90;99.90;;;;;;5067142;28;20108;-71
2021/07/25 06:06:36;;;;;;;38.38;18.60;;;18.90;99.90;;;;;;5066415;28;20025;-70
2021/07/25 06:09:03;;;;;;;33.67;16.75;;;19.00;99.90;;;;;;5066827;28;20021;-67
2021/07/25 06:11:30;;;;;;;40.42;17.15;;;19.10;99.90;;;;;;5067049;28;20044;-70
2021/07/25 06:13:57;;;;;;;28.83;15.15;;;19.10;99.90;;;;;;5046237;28;20502;-70
2021/07/25 06:16:22;;;;;;;35.58;16.98;;;19.10;99.90;;;;;;5046382;28;20390;-71
2021/07/25 06:18:48;;;;;;;34.83;16.67;;;19.20;99.90;;;;;;5050875;28;20064;-74
2021/07/25 06:21:18;;;;;;;37.03;17.42;;;19.30;99.90;;;;;;5066574;28;20097;-70
2021/07/25 06:23:45;;;;;;;31.73;15.77;;;19.30;99.90;;;;;;5062672;28;20036;-69
2021/07/25 06:26:11;;;;;;;48.42;18.80;;;19.40;99.90;;;;;;5046625;28;20099;-69
2021/07/25 06:28:37;;;;;;;43.00;15.82;;;19.40;99.90;;;;;;5046386;28;20029;-70
2021/07/25 06:31:02;;;;;;;31.30;16.52;;;19.50;99.90;;;;;;5046767;28;20387;-70
2021/07/25 06:33:29;;;;;;;36.10;16.25;;;19.50;99.90;;;;;;5046746;28;20056;-72
2021/07/25 06:35:55;;;;;;;37.58;16.10;;;19.50;99.90;;;;;;5045517;28;20033;-68
2021/07/25 06:38:21;;;;;;;32.58;15.70;;;19.50;99.90;;;;;;5066343;28;20029;-72
2021/07/25 06:40:50;;;;;;;28.20;14.68;;;19.60;99.90;;;;;;5065498;28;20037;-74
2021/07/25 06:43:17;;;;;;;33.35;14.63;;;19.60;99.90;;;;;;5066192;28;20040;-68
2021/07/25 06:45:42;;;;;;;28.60;14.45;;;19.60;99.90;;;;;;5065769;28;20025;-74
2021/07/25 06:48:19;;;;;;;32.45;15.90;;;19.70;99.90;;;;;;5066144;28;20101;-71
2021/07/25 06:50:50;;;;;;;32.53;16.45;;;19.60;99.90;;;;;;5064879;28;20036;-70
2021/07/25 06:53:16;;;;;;;28.05;15.70;;;19.70;99.90;;;;;;5064325;28;20665;-69
2021/07/25 06:55:42;;;;;;;34.30;15.30;;;19.70;99.90;;;;;;5065747;28;20045;-71
2021/07/25 06:58:08;;;;;;;26.80;12.45;;;19.70;99.90;;;;;;5065744;28;20056;-74
2021/07/25 07:00:36;;;;;;;30.23;14.27;;;19.80;99.90;;;;;;5065011;28;20794;-72
2021/07/25 07:03:02;;;;;;;33.45;15.13;;;19.80;99.90;;;;;;5065753;28;20032;-74
2021/07/25 07:05:30;;;;;;;32.05;14.52;;;19.80;99.90;;;;;;5065612;28;20025;-71
2021/07/25 07:07:58;;;;;;;43.22;14.80;;;19.90;99.90;;;;;;5064478;28;20033;-71
2021/07/25 07:10:26;;;;;;;34.83;14.07;;;19.90;99.90;;;;;;5063971;28;20013;-71
2021/07/25 07:12:53;;;;;;;30.70;13.02;;;19.90;99.90;;;;;;5057081;28;20508;-70
2021/07/25 07:15:20;;;;;;;25.65;13.38;;;19.90;99.90;;;;;;5057600;28;20061;-76
2021/07/25 07:17:50;;;;;;;29.60;14.43;;;20.00;99.90;;;;;;5051318;28;20026;-70
2021/07/25 07:20:19;;;;;;;33.92;14.60;;;20.00;99.90;;;;;;5054462;28;20090;-73
2021/07/25 07:22:59;;;;;;;41.33;13.88;;;20.00;99.90;;;;;;5056397;28;20022;-70
2021/07/25 07:25:27;;;;;;;28.65;13.57;;;20.00;99.90;;;;;;5045039;28;20026;-73
2021/07/25 07:27:53;;;;;;;38.42;15.52;;;20.10;99.90;;;;;;5054662;28;20091;-72
2021/07/25 07:30:19;;;;;;;27.02;14.10;;;20.10;99.90;;;;;;5051798;28;20029;-70
2021/07/25 07:32:45;;;;;;;30.85;14.20;;;20.10;99.90;;;;;;5065610;28;20021;-73
2021/07/25 07:35:11;;;;;;;36.25;14.52;;;20.20;99.90;;;;;;5065515;28;20050;-73
2021/07/25 07:37:38;;;;;;;34.97;15.05;;;20.30;99.90;;;;;;5065487;28;20021;-73
2021/07/25 07:40:05;;;;;;;25.95;13.48;;;20.40;99.90;;;;;;5065325;28;20043;-71
2021/07/25 07:42:31;;;;;;;31.40;14.40;;;20.50;99.90;;;;;;5065390;28;20051;-73
2021/07/25 07:44:57;;;;;;;25.27;13.20;;;20.60;99.90;;;;;;5065276;28;20503;-70
2021/07/25 07:47:23;;;;;;;24.65;13.18;;;20.70;99.90;;;;;;5064948;28;20119;-72
2021/07/25 07:49:52;;;;;;;23.52;12.25;;;20.70;99.90;;;;;;5064814;28;20029;-68
2021/07/25 07:52:18;;;;;;;34.03;13.60;;;20.70;99.90;;;;;;5063424;28;20025;-71
2021/07/25 07:54:43;;;;;;;38.55;13.95;;;20.60;99.90;;;;;;5063684;28;20104;-69
2021/07/25 07:57:09;;;;;;;24.48;12.82;;;20.70;99.90;;;;;;5063926;28;20025;-70
2021/07/25 07:59:35;;;;;;;23.35;13.27;;;20.80;99.90;;;;;;5063894;28;20048;-73
2021/07/25 08:02:01;;;;;;;26.08;12.63;;;20.90;99.90;;;;;;5064665;28;20036;-71
2021/07/25 08:04:27;;;;;;;25.67;12.73;;;20.90;99.90;;;;;;5063906;28;20381;-72
2021/07/25 08:06:52;;;;;;;27.92;13.10;;;20.90;99.90;;;;;;5064111;28;20093;-72
2021/07/25 08:09:18;;;;;;;25.55;13.40;;;21.00;99.90;;;;;;5064361;28;20062;-72
2021/07/25 08:11:45;;;;;;;29.40;13.73;;;21.10;99.90;;;;;;5064320;28;20099;-72
2021/07/25 08:14:12;;;;;;;34.50;14.45;;;21.10;99.90;;;;;;5063994;28;20037;-68
2021/07/25 08:16:37;;;;;;;33.13;14.10;;;21.10;99.90;;;;;;5064438;28;20416;-70
2021/07/25 08:19:03;;;;;;;30.63;15.18;;;21.10;99.90;;;;;;5062671;28;20025;-69
2021/07/25 08:21:29;;;;;;;24.02;12.45;;;21.10;99.90;;;;;;5062957;28;20039;-70
2021/07/25 08:23:55;;;;;;;23.90;12.82;;;21.10;99.90;;;;;;5064556;28;20036;-71
2021/07/25 08:26:21;;;;;;;26.20;12.63;;;21.10;99.90;;;;;;5063970;28;20033;-71
2021/07/25 08:28:46;;;;;;;25.52;12.65;;;21.30;99.90;;;;;;5064341;28;20086;-70
2021/07/25 08:31:12;;;;;;;30.77;13.07;;;21.30;99.90;;;;;;5063960;28;20025;-73
2021/07/25 08:33:37;;;;;;;26.55;11.60;;;21.40;99.90;;;;;;5064269;28;20021;-69
2021/07/25 08:36:04;;;;;;;31.52;12.32;;;21.60;99.90;;;;;;5064509;28;20123;-71
2021/07/25 08:38:29;;;;;;;23.70;10.48;;;21.60;99.90;;;;;;5054181;28;20037;-72
2021/07/25 08:41:32;;;;;;;36.25;12.73;;;21.70;99.90;;;;;;5057062;28;20088;-72
2021/07/25 08:44:24;;;;;;;21.92;12.40;;;21.80;99.90;;;;;;5064469;28;20036;-71
2021/07/25 08:46:56;;;;;;;27.55;12.90;;;21.70;99.90;;;;;;5063355;28;20025;-70
2021/07/25 08:49:34;;;;;;;25.33;11.57;;;21.70;99.90;;;;;;5059554;28;20034;-72
2021/07/25 08:52:03;;;;;;;25.08;10.95;;;21.70;99.90;;;;;;5044256;28;20026;-69
2021/07/25 08:54:29;;;;;;;21.75;11.10;;;21.80;99.90;;;;;;5044014;28;20030;-71
2021/07/25 08:57:00;;;;;;;21.38;11.85;;;21.90;99.90;;;;;;5044688;28;20041;-72
2021/07/25 08:59:29;;;;;;;19.17;9.75;;;22.00;99.90;;;;;;5044005;28;20037;-73
2021/07/25 09:02:00;;;;;;;21.10;9.95;;;22.00;99.90;;;;;;5044215;28;20018;-68
2021/07/25 09:04:28;;;;;;;21.92;10.15;;;22.10;99.90;;;;;;5043810;28;20029;-74
2021/07/25 09:06:55;;;;;;;19.00;10.48;;;22.10;99.90;;;;;;5042555;28;20028;-71
2021/07/25 09:09:21;;;;;;;25.95;10.45;;;22.20;99.90;;;;;;5042609;28;20022;-72
2021/07/25 09:11:47;;;;;;;20.55;10.43;;;22.30;99.90;;;;;;5043293;28;20371;-72
2021/07/25 09:14:13;;;;;;;18.52;9.75;;;22.30;99.90;;;;;;5043470;28;20077;-73
2021/07/25 09:16:39;;;;;;;19.17;9.93;;;22.20;99.90;;;;;;5046585;28;20026;-71
2021/07/25 09:19:06;;;;;;;16.50;9.18;;;22.10;99.90;;;;;;5047924;28;20150;-72
2021/07/25 09:21:46;;;;;;;18.65;9.63;;;22.20;99.90;;;;;;5047670;28;20021;-74
2021/07/25 09:24:30;;;;;;;21.42;10.50;;;22.30;99.90;;;;;;5047713;28;20453;-71
2021/07/25 09:26:59;;;;;;;18.80;9.30;;;22.30;99.90;;;;;;5047705;28;20085;-71
2021/07/25 09:29:28;;;;;;;19.70;9.82;;;22.20;99.90;;;;;;5047743;28;20037;-70
2021/07/25 09:32:16;;;;;;;15.35;9.43;;;22.30;99.90;;;;;;5046420;28;20030;-70
2021/07/25 09:34:47;;;;;;;26.33;9.68;;;22.20;99.90;;;;;;5047119;28;20056;-69
2021/07/25 09:37:14;;;;;;;16.20;9.32;;;22.30;99.90;;;;;;5047472;28;20036;-69
2021/07/25 09:39:40;;;;;;;21.08;10.77;;;22.30;99.90;;;;;;5045521;28;20068;-70
2021/07/25 09:42:07;;;;;;;19.88;10.90;;;22.50;99.90;;;;;;5047005;28;20033;-71
2021/07/25 09:44:53;;;;;;;19.58;9.43;;;22.60;99.90;;;;;;5047051;28;20044;-72
2021/07/25 09:47:39;;;;;;;15.70;8.07;;;22.80;99.90;;;;;;5047409;28;20068;-70
2021/07/25 09:50:06;;;;;;;17.73;8.52;;;22.90;99.90;;;;;;5046735;28;20033;-71
2021/07/25 09:52:34;;;;;;;14.60;7.75;;;22.90;99.90;;;;;;5047544;28;20026;-70
2021/07/25 09:55:02;;;;;;;11.82;6.97;;;22.90;99.90;;;;;;5047396;28;20053;-71
2021/07/25 09:57:29;;;;;;;12.68;6.93;;;23.00;99.90;;;;;;5047073;28;20026;-73
2021/07/25 09:59:57;;;;;;;15.15;8.15;;;23.20;99.90;;;;;;5046893;28;20044;-71
2021/07/25 10:02:42;;;;;;;17.27;7.30;;;23.30;99.90;;;;;;5046891;28;20057;-72
2021/07/25 10:05:13;;;;;;;14.75;6.88;;;23.30;99.90;;;;;;5046975;28;20029;-70
2021/07/25 10:07:40;;;;;;;10.90;5.80;;;23.30;99.90;;;;;;5061884;28;20037;-71
2021/07/25 10:10:07;;;;;;;14.77;6.15;;;23.40;99.90;;;;;;5046713;28;20123;-72
2021/07/25 10:12:34;;;;;;;11.02;5.90;;;23.50;99.90;;;;;;5046968;28;20067;-73
2021/07/25 10:15:02;;;;;;;18.40;7.03;;;23.60;99.90;;;;;;5046399;28;20087;-72
2021/07/25 10:17:35;;;;;;;11.38;6.80;;;23.60;99.90;;;;;;5046925;28;20030;-72
2021/07/25 10:20:06;;;;;;;11.77;6.78;;;23.70;99.90;;;;;;5046397;28;20026;-72
2021/07/25 10:22:33;;;;;;;9.43;5.85;;;23.80;99.90;;;;;;5046723;28;20025;-72
2021/07/25 10:25:01;;;;;;;29.50;5.90;;;23.80;99.90;;;;;;5062202;28;20032;-73
2021/07/25 10:27:28;;;;;;;13.77;5.72;;;23.90;99.90;;;;;;5044263;28;20029;-73
2021/07/25 10:29:54;;;;;;;11.38;5.00;;;23.90;99.90;;;;;;5046666;28;20025;-71
2021/07/25 10:32:22;;;;;;;7.20;4.53;;;24.00;99.90;;;;;;5046708;28;20017;-70
2021/07/25 10:34:49;;;;;;;10.05;5.60;;;24.20;99.90;;;;;;5046268;28;20433;-71
2021/07/25 10:37:15;;;;;;;11.18;5.47;;;24.30;99.90;;;;;;5046117;28;20072;-72
2021/07/25 10:39:50;;;;;;;18.42;5.90;;;24.40;99.90;;;;;;5045650;28;20065;-76
2021/07/25 10:42:21;;;;;;;10.60;4.75;;;24.50;99.90;;;;;;5046392;28;20017;-71
2021/07/25 10:44:46;;;;;;;12.32;5.65;;;24.50;99.90;;;;;;5046333;28;20056;-74
2021/07/25 10:47:33;;;;;;;10.45;5.93;;;24.70;99.90;;;;;;5046156;28;20049;-72
2021/07/25 10:50:09;;;;;;;9.63;4.90;;;25.00;99.90;;;;;;5045177;28;20025;-71
2021/07/25 10:52:52;;;;;;;6.80;4.40;;;25.10;99.90;;;;;;5048114;28;20032;-73
2021/07/25 10:55:41;;;;;;;7.95;4.32;;;25.00;99.90;;;;;;5057434;28;20481;-73
2021/07/25 10:58:17;;;;;;;11.63;5.28;;;24.80;99.90;;;;;;5046054;28;20060;-71
2021/07/25 11:00:54;;;;;;;8.45;4.63;;;24.70;99.90;;;;;;5045818;28;20038;-69
2021/07/25 11:03:25;;;;;;;7.30;3.63;;;24.70;99.90;;;;;;5051860;28;20033;-70
2021/07/25 11:06:13;;;;;;;9.20;4.18;;;24.90;99.90;;;;;;5060816;28;20021;-68
2021/07/25 11:08:52;;;;;;;8.20;4.20;;;25.10;99.90;;;;;;5045287;28;20036;-70
2021/07/25 11:11:29;;;;;;;9.15;3.95;;;25.30;99.90;;;;;;5045958;28;20152;-69
2021/07/25 11:13:55;;;;;;;8.00;4.03;;;25.60;99.90;;;;;;5048148;28;20731;-69
2021/07/25 11:16:34;;;;;;;5.43;3.63;;;25.80;99.90;;;;;;5065569;28;20457;-71
2021/07/25 11:19:27;;;;;;;11.50;3.83;;;26.00;99.90;;;;;;5065282;28;20031;-70
2021/07/25 11:21:53;;;;;;;5.90;3.00;;;26.10;99.90;;;;;;5052059;28;20072;-70
2021/07/25 11:24:19;;;;;;;4.65;2.90;;;26.20;99.90;;;;;;5054232;28;20030;-70
2021/07/25 11:26:51;;;;;;;4.35;2.58;;;26.30;99.90;;;;;;5045169;28;20041;-70
2021/07/25 11:29:33;;;;;;;4.25;2.88;;;26.40;99.90;;;;;;5043672;28;20040;-69
2021/07/25 11:32:01;;;;;;;5.03;2.65;;;26.40;99.90;;;;;;5051004;28;20017;-70
2021/07/25 11:34:33;;;;;;;8.30;2.92;;;26.40;99.90;;;;;;5065400;28;20021;-67
2021/07/25 11:37:02;;;;;;;6.18;3.00;;;26.30;99.90;;;;;;5063825;28;20021;-71
2021/07/25 11:39:32;;;;;;;10.40;3.25;;;26.30;99.90;;;;;;5065033;28;20099;-70
2021/07/25 11:42:03;;;;;;;10.75;2.95;;;26.20;99.90;;;;;;5064189;28;20044;-70
2021/07/25 11:44:30;;;;;;;4.55;2.63;;;26.20;99.90;;;;;;5071235;28;20441;-71
2021/07/25 11:46:58;;;;;;;4.13;2.65;;;26.20;99.90;;;;;;5045059;28;20076;-74
2021/07/25 11:49:28;;;;;;;4.20;2.63;;;26.20;99.90;;;;;;5045204;28;20021;-70
2021/07/25 11:51:57;;;;;;;6.40;3.13;;;26.30;99.90;;;;;;5045105;28;20057;-69
2021/07/25 11:54:31;;;;;;;6.65;3.00;;;26.70;99.90;;;;;;5051313;28;20092;-74
2021/07/25 11:57:03;;;;;;;11.97;4.00;;;27.20;99.90;;;;;;5061091;28;20065;-71
2021/07/25 11:59:31;;;;;;;5.55;2.88;;;27.50;99.90;;;;;;5044328;28;20101;-69
2021/07/25 12:01:57;;;;;;;4.20;2.63;;;27.70;99.90;;;;;;5058236;28;20505;-70
2021/07/25 12:04:28;;;;;;;5.90;2.80;;;27.80;99.90;;;;;;5063634;28;20029;-70
2021/07/25 12:07:11;;;;;;;5.50;3.08;;;27.90;99.90;;;;;;5064946;28;20017;-69
2021/07/25 12:09:38;;;;;;;7.13;3.35;;;28.00;99.90;;;;;;5062880;28;20033;-70
2021/07/25 12:12:06;;;;;;;6.88;2.75;;;28.10;99.90;;;;;;5044903;28;20025;-71
2021/07/25 12:14:33;;;;;;;6.53;3.10;;;28.20;99.90;;;;;;5044667;28;20053;-72
2021/07/25 12:16:59;;;;;;;6.13;2.85;;;28.30;99.90;;;;;;5044873;28;20032;-69
2021/07/25 12:19:24;;;;;;;3.50;2.75;;;28.50;99.90;;;;;;5044113;28;20069;-73
2021/07/25 12:22:07;;;;;;;6.32;3.15;;;28.60;99.90;;;;;;5061706;28;20032;-71
2021/07/25 12:24:35;;;;;;;6.00;2.58;;;28.80;99.90;;;;;;5064165;28;20025;-74
2021/07/25 12:27:02;;;;;;;8.80;2.80;;;28.80;99.90;;;;;;5064132;28;20017;-72
2021/07/25 12:29:44;;;;;;;2.22;1.75;;;28.90;99.90;;;;;;5064389;28;20045;-71
2021/07/25 12:32:31;;;;;;;5.05;2.45;;;29.20;99.90;;;;;;5064362;28;20029;-68
2021/07/25 12:35:09;;;;;;;4.40;2.28;;;29.40;99.90;;;;;;5064749;28;20052;-72
2021/07/25 12:37:54;;;;;;;4.93;2.33;;;29.40;99.90;;;;;;5064053;28;20029;-69
2021/07/25 12:40:31;;;;;;;2.95;1.85;;;29.60;99.90;;;;;;5064429;28;20124;-71